sensor_id;sensor_type;location;lat;lon;timestamp;temperature;humidity
5675;DHT22;2860;54.284;10.158;2022-09-01T00:00:17;10.90;99.90
5675;DHT22;2860;54.284;10.158;2022-09-01T00:02:45;10.80;99.90
5675;DHT22;2860;54.284;10.158;2022-09-01T00:05:12;10.80;99.90
5675;DHT22;2860;54.284;10.158;2022-09-01T00:07:37;10.80;99.90
5675;DHT22;2860;54.284;10.158;2022-09-01T00:10:05;10.80;99.90
5675;DHT22;2860;54.284;10.158;2022-09-01T00:12:31;10.70;99.90
5675;DHT22;2860;54.284;10.158;2022-09-01T00:14:57;10.70;99.90
5675;DHT22;2860;54.284;10.158;2022-09-01T00:17:23;10.70;99.90
5675;DHT22;2860;54.284;10.158;2022-09-01T00:19:50;10.70;99.90
5675;DHT22;2860;54.284;10.158;2022-09-01T00:22:15;10.70;99.90
5675;DHT22;2860;54.284;10.158;2022-09-01T00:24:41;10.60;99.90
5675;DHT22;2860;54.284;10.158;2022-09-01T00:27:07;10.60;99.90
5675;DHT22;2860;54.284;10.158;2022-09-01T00:29:32;10.60;99.90
5675;DHT22;2860;54.284;10.158;2022-09-01T00:31:58;10.50;99.90
5675;DHT22;2860;54.284;10.158;2022-09-01T00:34:24;10.50;99.90
5675;DHT22;2860;54.284;10.158;2022-09-01T00:36:49;10.50;99.90
5675;DHT22;2860;54.284;10.158;2022-09-01T00:39:15;10.50;99.90
5675;DHT22;2860;54.284;10.158;2022-09-01T00:41:41;10.50;99.90
5675;DHT22;2860;54.284;10.158;2022-09-01T00:44:11;10.40;99.90
5675;DHT22;2860;54.284;10.158;2022-09-01T00:46:41;10.40;99.90
5675;DHT22;2860;54.284;10.158;2022-09-01T00:51:59;10.40;99.90
5675;DHT22;2860;54.284;10.158;2022-09-01T00:54:31;10.40;99.90
5675;DHT22;2860;54.284;10.158;2022-09-01T00:56:57;10.40;99.90
5675;DHT22;2860;54.284;10.158;2022-09-01T00:59:24;10.40;99.90
5675;DHT22;2860;54.284;10.158;2022-09-01T01:01:51;10.30;99.90
5675;DHT22;2860;54.284;10.158;2022-09-01T01:04:17;10.30;99.90
5675;DHT22;2860;54.284;10.158;2022-09-01T01:06:46;10.30;99.90
5675;DHT22;2860;54.284;10.158;2022-09-01T01:09:16;10.30;99.90
5675;DHT22;2860;54.284;10.158;2022-09-01T01:11:42;10.30;99.90
5675;DHT22;2860;54.284;10.158;2022-09-01T01:14:12;10.30;99.90
5675;DHT22;2860;54.284;10.158;2022-09-01T01:16:41;10.30;99.90
5675;DHT22;2860;54.284;10.158;2022-09-01T01:19:35;10.30;99.90
5675;DHT22;2860;54.284;10.158;2022-09-01T01:22:35;10.30;99.90
5675;DHT22;2860;54.284;10.158;2022-09-01T01:25:22;10.30;99.90
5675;DHT22;2860;54.284;10.158;2022-09-01T01:27:49;10.20;99.90
5675;DHT22;2860;54.284;10.158;2022-09-01T01:30:15;10.20;99.90
5675;DHT22;2860;54.284;10.158;2022-09-01T01:32:44;10.20;99.90
5675;DHT22;2860;54.284;10.158;2022-09-01T01:35:13;10.20;99.90
5675;DHT22;2860;54.284;10.158;2022-09-01T01:37:42;10.10;99.90
5675;DHT22;2860;54.284;10.158;2022-09-01T01:40:10;10.10;99.90
5675;DHT22;2860;54.284;10.158;2022-09-01T01:42:46;10.10;99.90
5675;DHT22;2860;54.284;10.158;2022-09-01T01:45:14;10.10;99.90
5675;DHT22;2860;54.284;10.158;2022-09-01T01:47:45;10.10;99.90
5675;DHT22;2860;54.284;10.158;2022-09-01T01:50:25;10.00;99.90
5675;DHT22;2860;54.284;10.158;2022-09-01T01:52:51;10.00;99.90
5675;DHT22;2860;54.284;10.158;2022-09-01T01:55:17;10.00;99.90
5675;DHT22;2860;54.284;10.158;2022-09-01T01:57:47;10.00;99.90
5675;DHT22;2860;54.284;10.158;2022-09-01T02:00:20;10.00;99.90
5675;DHT22;2860;54.284;10.158;2022-09-01T02:02:47;9.90;99.90
5675;DHT22;2860;54.284;10.158;2022-09-01T02:05:35;10.00;99.90
5675;DHT22;2860;54.284;10.158;2022-09-01T02:08:22;9.90;99.90
5675;DHT22;2860;54.284;10.158;2022-09-01T02:10:52;9.90;99.90
5675;DHT22;2860;54.284;10.158;2022-09-01T02:13:20;9.90;99.90
5675;DHT22;2860;54.284;10.158;2022-09-01T02:15:52;9.90;99.90
5675;DHT22;2860;54.284;10.158;2022-09-01T02:18:24;9.90;99.90
5675;DHT22;2860;54.284;10.158;2022-09-01T02:20:52;9.80;99.90
5675;DHT22;2860;54.284;10.158;2022-09-01T02:23:18;9.80;99.90
5675;DHT22;2860;54.284;10.158;2022-09-01T02:25:49;9.80;99.90
5675;DHT22;2860;54.284;10.158;2022-09-01T02:28:16;9.80;99.90
5675;DHT22;2860;54.284;10.158;2022-09-01T02:30:47;9.80;99.90
5675;DHT22;2860;54.284;10.158;2022-09-01T02:33:20;9.80;99.90
5675;DHT22;2860;54.284;10.158;2022-09-01T02:35:50;9.80;99.90
5675;DHT22;2860;54.284;10.158;2022-09-01T02:38:16;9.80;99.90
5675;DHT22;2860;54.284;10.158;2022-09-01T02:40:43;9.80;99.90
5675;DHT22;2860;54.284;10.158;2022-09-01T02:43:10;9.80;99.90
5675;DHT22;2860;54.284;10.158;2022-09-01T02:45:39;9.80;99.90
5675;DHT22;2860;54.284;10.158;2022-09-01T02:48:08;9.80;99.90
5675;DHT22;2860;54.284;10.158;2022-09-01T02:50:38;9.80;99.90
5675;DHT22;2860;54.284;10.158;2022-09-01T02:53:06;9.70;99.90
5675;DHT22;2860;54.284;10.158;2022-09-01T02:55:35;9.70;99.90
5675;DHT22;2860;54.284;10.158;2022-09-01T02:58:00;9.60;99.90
5675;DHT22;2860;54.284;10.158;2022-09-01T03:00:26;9.60;99.90
5675;DHT22;2860;54.284;10.158;2022-09-01T03:02:58;9.60;99.90
5675;DHT22;2860;54.284;10.158;2022-09-01T03:05:26;9.60;99.90
5675;DHT22;2860;54.284;10.158;2022-09-01T03:07:55;9.60;99.90
5675;DHT22;2860;54.284;10.158;2022-09-01T03:10:30;9.60;99.90
5675;DHT22;2860;54.284;10.158;2022-09-01T03:12:59;9.60;99.90
5675;DHT22;2860;54.284;10.158;2022-09-01T03:15:25;9.60;99.90
5675;DHT22;2860;54.284;10.158;2022-09-01T03:17:51;9.70;99.90
5675;DHT22;2860;54.284;10.158;2022-09-01T03:20:17;9.60;99.90
5675;DHT22;2860;54.284;10.158;2022-09-01T03:22:44;9.70;99.90
5675;DHT22;2860;54.284;10.158;2022-09-01T03:25:12;9.60;99.90
5675;DHT22;2860;54.284;10.158;2022-09-01T03:27:37;9.60;99.90
5675;DHT22;2860;54.284;10.158;2022-09-01T03:30:03;9.60;99.90
5675;DHT22;2860;54.284;10.158;2022-09-01T03:32:29;9.60;99.90
5675;DHT22;2860;54.284;10.158;2022-09-01T03:34:55;9.50;99.90
5675;DHT22;2860;54.284;10.158;2022-09-01T03:37:21;9.50;99.90
5675;DHT22;2860;54.284;10.158;2022-09-01T03:39:47;9.50;99.90
5675;DHT22;2860;54.284;10.158;2022-09-01T03:42:13;9.50;99.90
5675;DHT22;2860;54.284;10.158;2022-09-01T03:44:47;9.50;99.90
5675;DHT22;2860;54.284;10.158;2022-09-01T03:47:14;9.50;99.90
5675;DHT22;2860;54.284;10.158;2022-09-01T03:49:40;9.50;99.90
5675;DHT22;2860;54.284;10.158;2022-09-01T03:52:08;9.50;99.90
5675;DHT22;2860;54.284;10.158;2022-09-01T03:54:35;9.50;99.90
5675;DHT22;2860;54.284;10.158;2022-09-01T03:57:01;9.50;99.90
5675;DHT22;2860;54.284;10.158;2022-09-01T03:59:31;9.50;99.90
5675;DHT22;2860;54.284;10.158;2022-09-01T04:01:58;9.50;99.90
5675;DHT22;2860;54.284;10.158;2022-09-01T04:04:24;9.50;99.90
5675;DHT22;2860;54.284;10.158;2022-09-01T04:06:50;9.50;99.90
5675;DHT22;2860;54.284;10.158;2022-09-01T04:09:15;9.50;99.90
5675;DHT22;2860;54.284;10.158;2022-09-01T04:11:41;9.50;99.90
5675;DHT22;2860;54.284;10.158;2022-09-01T04:14:10;9.50;99.90
5675;DHT22;2860;54.284;10.158;2022-09-01T04:16:36;9.50;99.90
5675;DHT22;2860;54.284;10.158;2022-09-01T04:19:23;9.40;99.90
5675;DHT22;2860;54.284;10.158;2022-09-01T04:21:57;9.40;99.90
5675;DHT22;2860;54.284;10.158;2022-09-01T04:24:27;9.40;99.90
5675;DHT22;2860;54.284;10.158;2022-09-01T04:26:56;9.40;99.90
5675;DHT22;2860;54.284;10.158;2022-09-01T04:29:23;9.40;99.90
5675;DHT22;2860;54.284;10.158;2022-09-01T04:32:04;9.30;99.90
5675;DHT22;2860;54.284;10.158;2022-09-01T04:34:33;9.30;99.90
5675;DHT22;2860;54.284;10.158;2022-09-01T04:37:07;9.30;99.90
5675;DHT22;2860;54.284;10.158;2022-09-01T04:39:33;9.30;99.90
5675;DHT22;2860;54.284;10.158;2022-09-01T04:42:00;9.30;99.90
5675;DHT22;2860;54.284;10.158;2022-09-01T04:44:33;9.30;99.90
5675;DHT22;2860;54.284;10.158;2022-09-01T04:47:00;9.40;99.90
5675;DHT22;2860;54.284;10.158;2022-09-01T04:49:25;9.40;99.90
5675;DHT22;2860;54.284;10.158;2022-09-01T04:51:52;9.40;99.90
5675;DHT22;2860;54.284;10.158;2022-09-01T04:54:18;9.40;99.90
5675;DHT22;2860;54.284;10.158;2022-09-01T04:56:47;9.50;99.90
5675;DHT22;2860;54.284;10.158;2022-09-01T04:59:19;9.50;99.90
5675;DHT22;2860;54.284;10.158;2022-09-01T05:01:46;9.50;99.90
5675;DHT22;2860;54.284;10.158;2022-09-01T05:04:16;9.50;99.90
5675;DHT22;2860;54.284;10.158;2022-09-01T05:06:45;9.60;99.90
5675;DHT22;2860;54.284;10.158;2022-09-01T05:09:12;9.60;99.90
5675;DHT22;2860;54.284;10.158;2022-09-01T05:11:39;9.60;99.90
5675;DHT22;2860;54.284;10.158;2022-09-01T05:14:11;9.70;99.90
5675;DHT22;2860;54.284;10.158;2022-09-01T05:16:37;9.70;99.90
5675;DHT22;2860;54.284;10.158;2022-09-01T05:19:06;9.80;99.90
5675;DHT22;2860;54.284;10.158;2022-09-01T05:21:32;9.80;99.90
5675;DHT22;2860;54.284;10.158;2022-09-01T05:23:58;9.90;99.90
5675;DHT22;2860;54.284;10.158;2022-09-01T05:26:30;10.20;99.90
5675;DHT22;2860;54.284;10.158;2022-09-01T05:29:01;10.80;99.90
5675;DHT22;2860;54.284;10.158;2022-09-01T05:31:29;11.60;99.90
5675;DHT22;2860;54.284;10.158;2022-09-01T05:33:59;12.40;99.90
5675;DHT22;2860;54.284;10.158;2022-09-01T05:36:26;13.10;99.90
5675;DHT22;2860;54.284;10.158;2022-09-01T05:38:53;13.70;99.90
5675;DHT22;2860;54.284;10.158;2022-09-01T05:41:19;14.30;99.90
5675;DHT22;2860;54.284;10.158;2022-09-01T05:43:46;14.80;99.90
5675;DHT22;2860;54.284;10.158;2022-09-01T05:46:18;15.20;99.90
5675;DHT22;2860;54.284;10.158;2022-09-01T05:48:46;15.40;99.90
5675;DHT22;2860;54.284;10.158;2022-09-01T05:51:16;15.50;99.90
5675;DHT22;2860;54.284;10.158;2022-09-01T05:53:44;15.70;99.90
5675;DHT22;2860;54.284;10.158;2022-09-01T05:56:11;15.90;99.90
5675;DHT22;2860;54.284;10.158;2022-09-01T05:58:37;16.10;99.90
5675;DHT22;2860;54.284;10.158;2022-09-01T06:01:05;16.20;99.90
5675;DHT22;2860;54.284;10.158;2022-09-01T06:03:30;16.30;99.90
5675;DHT22;2860;54.284;10.158;2022-09-01T06:06:02;16.30;99.90
5675;DHT22;2860;54.284;10.158;2022-09-01T06:08:33;16.10;99.90
5675;DHT22;2860;54.284;10.158;2022-09-01T06:11:00;16.00;99.90
5675;DHT22;2860;54.284;10.158;2022-09-01T06:13:28;15.80;99.90
5675;DHT22;2860;54.284;10.158;2022-09-01T06:15:54;15.70;99.90
5675;DHT22;2860;54.284;10.158;2022-09-01T06:18:22;15.60;99.90
5675;DHT22;2860;54.284;10.158;2022-09-01T06:20:49;15.50;99.90
5675;DHT22;2860;54.284;10.158;2022-09-01T06:23:16;15.50;99.90
5675;DHT22;2860;54.284;10.158;2022-09-01T06:25:46;15.40;99.90
5675;DHT22;2860;54.284;10.158;2022-09-01T06:28:13;15.40;99.90
5675;DHT22;2860;54.284;10.158;2022-09-01T06:30:40;15.50;99.90
5675;DHT22;2860;54.284;10.158;2022-09-01T06:33:07;15.50;99.90
5675;DHT22;2860;54.284;10.158;2022-09-01T06:35:36;15.60;99.90
5675;DHT22;2860;54.284;10.158;2022-09-01T06:38:03;15.60;99.90
5675;DHT22;2860;54.284;10.158;2022-09-01T06:40:31;15.70;99.90
5675;DHT22;2860;54.284;10.158;2022-09-01T06:42:58;15.80;99.90
5675;DHT22;2860;54.284;10.158;2022-09-01T06:45:26;16.00;99.90
5675;DHT22;2860;54.284;10.158;2022-09-01T06:47:52;16.10;99.90
5675;DHT22;2860;54.284;10.158;2022-09-01T06:50:20;16.30;99.90
5675;DHT22;2860;54.284;10.158;2022-09-01T06:52:49;16.50;99.90
5675;DHT22;2860;54.284;10.158;2022-09-01T06:55:26;16.70;99.90
5675;DHT22;2860;54.284;10.158;2022-09-01T06:57:56;16.90;99.90
5675;DHT22;2860;54.284;10.158;2022-09-01T07:00:23;17.10;99.90
5675;DHT22;2860;54.284;10.158;2022-09-01T07:02:55;17.30;99.90
5675;DHT22;2860;54.284;10.158;2022-09-01T07:05:23;17.40;99.90
5675;DHT22;2860;54.284;10.158;2022-09-01T07:07:53;17.60;99.90
5675;DHT22;2860;54.284;10.158;2022-09-01T07:10:21;17.70;99.90
5675;DHT22;2860;54.284;10.158;2022-09-01T07:23:09;18.40;99.90
5675;DHT22;2860;54.284;10.158;2022-09-01T07:25:40;18.50;99.90
5675;DHT22;2860;54.284;10.158;2022-09-01T07:28:08;18.60;99.90
5675;DHT22;2860;54.284;10.158;2022-09-01T07:30:40;18.70;99.90
5675;DHT22;2860;54.284;10.158;2022-09-01T07:33:07;18.80;99.90
5675;DHT22;2860;54.284;10.158;2022-09-01T07:35:37;18.90;99.90
5675;DHT22;2860;54.284;10.158;2022-09-01T07:38:04;19.00;99.90
5675;DHT22;2860;54.284;10.158;2022-09-01T07:40:36;19.10;99.90
5675;DHT22;2860;54.284;10.158;2022-09-01T07:43:05;19.20;99.90
5675;DHT22;2860;54.284;10.158;2022-09-01T07:45:34;19.30;99.90
5675;DHT22;2860;54.284;10.158;2022-09-01T07:48:01;19.30;99.90
5675;DHT22;2860;54.284;10.158;2022-09-01T07:50:32;19.40;99.90
5675;DHT22;2860;54.284;10.158;2022-09-01T07:52:58;19.50;99.90
5675;DHT22;2860;54.284;10.158;2022-09-01T07:55:24;19.60;99.90
5675;DHT22;2860;54.284;10.158;2022-09-01T07:57:52;19.50;99.90
5675;DHT22;2860;54.284;10.158;2022-09-01T08:00:17;19.40;99.90
5675;DHT22;2860;54.284;10.158;2022-09-01T08:02:46;19.20;99.90
5675;DHT22;2860;54.284;10.158;2022-09-01T08:05:15;19.00;99.90
5675;DHT22;2860;54.284;10.158;2022-09-01T08:07:42;18.90;99.90
5675;DHT22;2860;54.284;10.158;2022-09-01T08:10:08;18.80;99.90
5675;DHT22;2860;54.284;10.158;2022-09-01T08:12:34;18.80;99.90
5675;DHT22;2860;54.284;10.158;2022-09-01T08:15:05;18.80;99.90
5675;DHT22;2860;54.284;10.158;2022-09-01T08:17:31;18.80;99.90
5675;DHT22;2860;54.284;10.158;2022-09-01T08:19:57;18.70;99.90
5675;DHT22;2860;54.284;10.158;2022-09-01T08:22:22;18.70;99.90
5675;DHT22;2860;54.284;10.158;2022-09-01T08:24:51;18.60;99.90
5675;DHT22;2860;54.284;10.158;2022-09-01T08:27:17;18.60;99.90
5675;DHT22;2860;54.284;10.158;2022-09-01T08:29:43;18.60;99.90
5675;DHT22;2860;54.284;10.158;2022-09-01T08:32:09;18.60;99.90
5675;DHT22;2860;54.284;10.158;2022-09-01T08:34:35;18.50;99.90
5675;DHT22;2860;54.284;10.158;2022-09-01T08:37:02;18.50;99.90
5675;DHT22;2860;54.284;10.158;2022-09-01T08:39:28;18.50;99.90
5675;DHT22;2860;54.284;10.158;2022-09-01T08:42:17;18.50;99.90
5675;DHT22;2860;54.284;10.158;2022-09-01T08:45:10;18.50;99.90
5675;DHT22;2860;54.284;10.158;2022-09-01T08:47:37;18.50;99.90
5675;DHT22;2860;54.284;10.158;2022-09-01T08:50:03;18.50;99.90
5675;DHT22;2860;54.284;10.158;2022-09-01T08:52:37;18.60;99.90
5675;DHT22;2860;54.284;10.158;2022-09-01T08:55:18;18.70;99.90
5675;DHT22;2860;54.284;10.158;2022-09-01T08:57:46;18.80;99.90
5675;DHT22;2860;54.284;10.158;2022-09-01T09:00:17;18.80;99.90
5675;DHT22;2860;54.284;10.158;2022-09-01T09:02:49;19.00;99.90
5675;DHT22;2860;54.284;10.158;2022-09-01T09:05:34;19.50;99.90
5675;DHT22;2860;54.284;10.158;2022-09-01T09:11:03;20.30;99.90
5675;DHT22;2860;54.284;10.158;2022-09-01T09:16:14;21.20;99.90
5675;DHT22;2860;54.284;10.158;2022-09-01T09:18:50;21.50;99.90
5675;DHT22;2860;54.284;10.158;2022-09-01T09:21:39;21.60;99.90
5675;DHT22;2860;54.284;10.158;2022-09-01T09:27:19;21.10;99.90
5675;DHT22;2860;54.284;10.158;2022-09-01T09:29:47;20.70;99.90
5675;DHT22;2860;54.284;10.158;2022-09-01T09:32:13;20.50;99.90
5675;DHT22;2860;54.284;10.158;2022-09-01T09:34:41;20.50;99.90
5675;DHT22;2860;54.284;10.158;2022-09-01T09:37:42;20.60;99.90
5675;DHT22;2860;54.284;10.158;2022-09-01T09:40:14;21.20;99.90
5675;DHT22;2860;54.284;10.158;2022-09-01T09:43:02;21.60;99.90
5675;DHT22;2860;54.284;10.158;2022-09-01T09:45:35;22.10;99.90
5675;DHT22;2860;54.284;10.158;2022-09-01T09:48:27;22.30;99.90
5675;DHT22;2860;54.284;10.158;2022-09-01T09:50:53;22.60;99.90
5675;DHT22;2860;54.284;10.158;2022-09-01T09:53:27;22.70;99.90
5675;DHT22;2860;54.284;10.158;2022-09-01T09:55:58;22.70;99.90
5675;DHT22;2860;54.284;10.158;2022-09-01T09:58:33;22.50;99.90
5675;DHT22;2860;54.284;10.158;2022-09-01T10:01:01;22.30;99.90
5675;DHT22;2860;54.284;10.158;2022-09-01T10:03:54;22.30;99.90
5675;DHT22;2860;54.284;10.158;2022-09-01T10:06:41;22.40;99.90
5675;DHT22;2860;54.284;10.158;2022-09-01T10:09:34;22.50;99.90
5675;DHT22;2860;54.284;10.158;2022-09-01T10:12:02;22.50;99.90
5675;DHT22;2860;54.284;10.158;2022-09-01T10:14:32;22.70;99.90
5675;DHT22;2860;54.284;10.158;2022-09-01T10:17:07;22.70;99.90
5675;DHT22;2860;54.284;10.158;2022-09-01T10:19:36;22.40;99.90
5675;DHT22;2860;54.284;10.158;2022-09-01T10:22:07;22.10;99.90
5675;DHT22;2860;54.284;10.158;2022-09-01T10:24:36;22.10;99.90
5675;DHT22;2860;54.284;10.158;2022-09-01T10:27:24;21.80;99.90
5675;DHT22;2860;54.284;10.158;2022-09-01T10:30:03;21.50;99.90
5675;DHT22;2860;54.284;10.158;2022-09-01T10:32:36;21.60;99.90
5675;DHT22;2860;54.284;10.158;2022-09-01T10:35:03;21.90;99.90
5675;DHT22;2860;54.284;10.158;2022-09-01T10:37:30;22.10;99.90
5675;DHT22;2860;54.284;10.158;2022-09-01T10:40:15;22.20;99.90
5675;DHT22;2860;54.284;10.158;2022-09-01T10:42:44;22.30;99.90
5675;DHT22;2860;54.284;10.158;2022-09-01T10:45:36;22.60;99.90
5675;DHT22;2860;54.284;10.158;2022-09-01T10:50:48;22.50;99.90
5675;DHT22;2860;54.284;10.158;2022-09-01T10:56:12;22.40;99.90
5675;DHT22;2860;54.284;10.158;2022-09-01T11:04:13;22.00;99.90
5675;DHT22;2860;54.284;10.158;2022-09-01T11:12:24;22.30;99.90
5675;DHT22;2860;54.284;10.158;2022-09-01T11:15:01;22.30;99.90
5675;DHT22;2860;54.284;10.158;2022-09-01T11:17:31;22.20;99.90
5675;DHT22;2860;54.284;10.158;2022-09-01T11:23:10;22.20;99.90
5675;DHT22;2860;54.284;10.158;2022-09-01T11:25:45;22.20;99.90
5675;DHT22;2860;54.284;10.158;2022-09-01T11:36:06;22.70;99.90
5675;DHT22;2860;54.284;10.158;2022-09-01T11:38:51;22.90;99.90
5675;DHT22;2860;54.284;10.158;2022-09-01T11:41:21;22.90;99.90
5675;DHT22;2860;54.284;10.158;2022-09-01T11:43:53;22.70;99.90
5675;DHT22;2860;54.284;10.158;2022-09-01T11:46:24;22.50;99.90
5675;DHT22;2860;54.284;10.158;2022-09-01T11:48:51;22.40;99.90
5675;DHT22;2860;54.284;10.158;2022-09-01T11:51:17;22.10;99.90
5675;DHT22;2860;54.284;10.158;2022-09-01T11:53:43;21.70;99.90
5675;DHT22;2860;54.284;10.158;2022-09-01T11:56:27;21.50;99.90
5675;DHT22;2860;54.284;10.158;2022-09-01T11:58:53;21.60;99.90
5675;DHT22;2860;54.284;10.158;2022-09-01T12:01:33;21.60;99.90
5675;DHT22;2860;54.284;10.158;2022-09-01T12:04:23;21.70;99.90
5675;DHT22;2860;54.284;10.158;2022-09-01T12:07:05;21.90;99.90
5675;DHT22;2860;54.284;10.158;2022-09-01T12:09:43;21.70;99.90
5675;DHT22;2860;54.284;10.158;2022-09-01T12:12:48;21.70;99.90
5675;DHT22;2860;54.284;10.158;2022-09-01T12:15:23;21.90;99.90
5675;DHT22;2860;54.284;10.158;2022-09-01T12:17:49;21.90;99.90
5675;DHT22;2860;54.284;10.158;2022-09-01T12:20:31;21.80;99.90
5675;DHT22;2860;54.284;10.158;2022-09-01T12:23:00;21.80;99.90
5675;DHT22;2860;54.284;10.158;2022-09-01T12:25:31;21.60;99.90
5675;DHT22;2860;54.284;10.158;2022-09-01T12:28:04;21.50;99.90
5675;DHT22;2860;54.284;10.158;2022-09-01T12:30:31;21.50;99.90
5675;DHT22;2860;54.284;10.158;2022-09-01T12:33:02;21.40;99.90
5675;DHT22;2860;54.284;10.158;2022-09-01T12:35:28;21.50;99.90
5675;DHT22;2860;54.284;10.158;2022-09-01T12:40:50;21.60;99.90
5675;DHT22;2860;54.284;10.158;2022-09-01T12:43:36;21.60;99.90
5675;DHT22;2860;54.284;10.158;2022-09-01T12:46:05;21.60;99.90
5675;DHT22;2860;54.284;10.158;2022-09-01T12:48:36;21.60;99.90
5675;DHT22;2860;54.284;10.158;2022-09-01T12:51:14;21.60;99.90
5675;DHT22;2860;54.284;10.158;2022-09-01T12:53:50;21.50;99.90
5675;DHT22;2860;54.284;10.158;2022-09-01T12:56:29;21.20;99.90
5675;DHT22;2860;54.284;10.158;2022-09-01T12:59:08;20.90;99.90
5675;DHT22;2860;54.284;10.158;2022-09-01T13:01:37;20.70;99.90
5675;DHT22;2860;54.284;10.158;2022-09-01T13:06:50;20.80;99.90
5675;DHT22;2860;54.284;10.158;2022-09-01T13:09:15;21.00;99.90
5675;DHT22;2860;54.284;10.158;2022-09-01T13:11:41;21.20;99.90
5675;DHT22;2860;54.284;10.158;2022-09-01T13:14:07;21.20;99.90
5675;DHT22;2860;54.284;10.158;2022-09-01T13:16:34;21.10;99.90
5675;DHT22;2860;54.284;10.158;2022-09-01T13:19:01;20.80;99.90
5675;DHT22;2860;54.284;10.158;2022-09-01T13:21:27;20.50;99.90
5675;DHT22;2860;54.284;10.158;2022-09-01T13:23:54;20.30;99.90
5675;DHT22;2860;54.284;10.158;2022-09-01T13:26:20;20.40;99.90
5675;DHT22;2860;54.284;10.158;2022-09-01T13:28:45;20.50;99.90
5675;DHT22;2860;54.284;10.158;2022-09-01T13:31:12;20.70;99.90
5675;DHT22;2860;54.284;10.158;2022-09-01T13:33:38;20.80;99.90
5675;DHT22;2860;54.284;10.158;2022-09-01T13:36:03;20.90;99.90
5675;DHT22;2860;54.284;10.158;2022-09-01T13:38:29;20.90;99.90
5675;DHT22;2860;54.284;10.158;2022-09-01T13:40:57;21.00;99.90
5675;DHT22;2860;54.284;10.158;2022-09-01T13:43:23;20.90;99.90
5675;DHT22;2860;54.284;10.158;2022-09-01T13:45:50;20.70;99.90
5675;DHT22;2860;54.284;10.158;2022-09-01T13:48:16;20.40;99.90
5675;DHT22;2860;54.284;10.158;2022-09-01T13:50:43;20.20;99.90
5675;DHT22;2860;54.284;10.158;2022-09-01T13:53:09;20.10;99.90
5675;DHT22;2860;54.284;10.158;2022-09-01T13:55:38;20.10;99.90
5675;DHT22;2860;54.284;10.158;2022-09-01T13:58:04;20.30;99.90
5675;DHT22;2860;54.284;10.158;2022-09-01T14:00:32;20.50;99.90
5675;DHT22;2860;54.284;10.158;2022-09-01T14:03:08;20.60;99.90
5675;DHT22;2860;54.284;10.158;2022-09-01T14:05:38;20.70;99.90
5675;DHT22;2860;54.284;10.158;2022-09-01T14:08:05;20.70;99.90
5675;DHT22;2860;54.284;10.158;2022-09-01T14:10:32;20.70;99.90
5675;DHT22;2860;54.284;10.158;2022-09-01T14:12:58;20.70;99.90
5675;DHT22;2860;54.284;10.158;2022-09-01T14:15:25;20.70;99.90
5675;DHT22;2860;54.284;10.158;2022-09-01T14:17:52;20.80;99.90
5675;DHT22;2860;54.284;10.158;2022-09-01T14:20:25;20.90;99.90
5675;DHT22;2860;54.284;10.158;2022-09-01T14:22:51;20.90;99.90
5675;DHT22;2860;54.284;10.158;2022-09-01T14:25:19;21.00;99.90
5675;DHT22;2860;54.284;10.158;2022-09-01T14:27:46;21.00;99.90
5675;DHT22;2860;54.284;10.158;2022-09-01T14:30:20;21.10;99.90
5675;DHT22;2860;54.284;10.158;2022-09-01T14:32:46;21.00;99.90
5675;DHT22;2860;54.284;10.158;2022-09-01T14:35:13;20.90;99.90
5675;DHT22;2860;54.284;10.158;2022-09-01T14:37:39;21.00;99.90
5675;DHT22;2860;54.284;10.158;2022-09-01T14:40:06;21.00;99.90
5675;DHT22;2860;54.284;10.158;2022-09-01T14:42:33;21.00;99.90
5675;DHT22;2860;54.284;10.158;2022-09-01T14:44:59;21.00;99.90
5675;DHT22;2860;54.284;10.158;2022-09-01T14:47:26;21.00;99.90
5675;DHT22;2860;54.284;10.158;2022-09-01T14:49:52;20.90;99.90
5675;DHT22;2860;54.284;10.158;2022-09-01T14:52:18;20.90;99.90
5675;DHT22;2860;54.284;10.158;2022-09-01T14:54:44;20.90;99.90
5675;DHT22;2860;54.284;10.158;2022-09-01T14:57:10;20.90;99.90
5675;DHT22;2860;54.284;10.158;2022-09-01T14:59:36;21.00;99.90
5675;DHT22;2860;54.284;10.158;2022-09-01T15:02:02;20.90;99.90
5675;DHT22;2860;54.284;10.158;2022-09-01T15:04:28;20.90;99.90
5675;DHT22;2860;54.284;10.158;2022-09-01T15:06:54;20.90;99.90
5675;DHT22;2860;54.284;10.158;2022-09-01T15:09:20;20.90;99.90
5675;DHT22;2860;54.284;10.158;2022-09-01T15:11:46;21.00;99.90
5675;DHT22;2860;54.284;10.158;2022-09-01T15:14:12;21.00;99.90
5675;DHT22;2860;54.284;10.158;2022-09-01T15:16:38;21.00;99.90
5675;DHT22;2860;54.284;10.158;2022-09-01T15:19:07;21.10;99.90
5675;DHT22;2860;54.284;10.158;2022-09-01T15:21:35;21.10;99.90
5675;DHT22;2860;54.284;10.158;2022-09-01T15:24:01;21.10;99.90
5675;DHT22;2860;54.284;10.158;2022-09-01T15:26:28;21.00;99.90
5675;DHT22;2860;54.284;10.158;2022-09-01T15:28:54;20.90;99.90
5675;DHT22;2860;54.284;10.158;2022-09-01T15:31:21;20.90;99.90
5675;DHT22;2860;54.284;10.158;2022-09-01T15:33:48;20.80;99.90
5675;DHT22;2860;54.284;10.158;2022-09-01T15:36:19;20.70;99.90
5675;DHT22;2860;54.284;10.158;2022-09-01T15:38:46;20.70;99.90
5675;DHT22;2860;54.284;10.158;2022-09-01T15:41:16;20.60;99.90
5675;DHT22;2860;54.284;10.158;2022-09-01T15:43:42;20.50;99.90
5675;DHT22;2860;54.284;10.158;2022-09-01T15:46:08;20.30;99.90
5675;DHT22;2860;54.284;10.158;2022-09-01T15:48:34;20.20;99.90
5675;DHT22;2860;54.284;10.158;2022-09-01T15:53:46;20.00;99.90
5675;DHT22;2860;54.284;10.158;2022-09-01T15:56:12;19.90;99.90
5675;DHT22;2860;54.284;10.158;2022-09-01T15:58:37;19.80;99.90
5675;DHT22;2860;54.284;10.158;2022-09-01T16:01:03;19.70;99.90
5675;DHT22;2860;54.284;10.158;2022-09-01T16:03:28;19.60;99.90
5675;DHT22;2860;54.284;10.158;2022-09-01T16:05:59;19.60;99.90
5675;DHT22;2860;54.284;10.158;2022-09-01T16:08:25;19.50;99.90
5675;DHT22;2860;54.284;10.158;2022-09-01T16:10:51;19.40;99.90
5675;DHT22;2860;54.284;10.158;2022-09-01T16:13:16;19.30;99.90
5675;DHT22;2860;54.284;10.158;2022-09-01T16:16:06;19.30;99.90
5675;DHT22;2860;54.284;10.158;2022-09-01T16:18:40;19.30;99.90
5675;DHT22;2860;54.284;10.158;2022-09-01T16:21:20;19.20;99.90
5675;DHT22;2860;54.284;10.158;2022-09-01T16:23:49;19.10;99.90
5675;DHT22;2860;54.284;10.158;2022-09-01T16:26:18;19.10;99.90
5675;DHT22;2860;54.284;10.158;2022-09-01T16:28:47;19.00;99.90
5675;DHT22;2860;54.284;10.158;2022-09-01T16:31:16;19.00;99.90
5675;DHT22;2860;54.284;10.158;2022-09-01T16:33:48;18.90;99.90
5675;DHT22;2860;54.284;10.158;2022-09-01T16:36:34;18.80;99.90
5675;DHT22;2860;54.284;10.158;2022-09-01T16:42:03;18.60;99.90
5675;DHT22;2860;54.284;10.158;2022-09-01T16:44:48;18.50;99.90
5675;DHT22;2860;54.284;10.158;2022-09-01T16:52:46;18.40;99.90
5675;DHT22;2860;54.284;10.158;2022-09-01T16:58:18;18.30;99.90
5675;DHT22;2860;54.284;10.158;2022-09-01T17:01:00;18.20;99.90
5675;DHT22;2860;54.284;10.158;2022-09-01T17:03:34;18.20;99.90
5675;DHT22;2860;54.284;10.158;2022-09-01T17:06:31;18.10;99.90
5675;DHT22;2860;54.284;10.158;2022-09-01T17:14:16;17.80;99.90
5675;DHT22;2860;54.284;10.158;2022-09-01T17:16:50;17.80;99.90
5675;DHT22;2860;54.284;10.158;2022-09-01T17:19:20;17.70;99.90
5675;DHT22;2860;54.284;10.158;2022-09-01T17:21:48;17.70;99.90